Time;durP1;ratioP1;P1;durP2;ratioP2;P2;SDS_P1;SDS_P2;PMS_P1;PMS_P2;Temp;Humidity;BMP_temperature;BMP_pressure;BME280_temperature;BME280_humidity;BME280_pressure;Samples;Min_cycle;Max_cycle;Signal;HPM_P1;HPM_P2
2022/01/12 00:01:15;;;;;;;7.00;5.60;;;;;;;-11.07;82.58;101066.55;1689193;83;21972;-81
2022/01/12 00:03:43;;;;;;;5.63;5.07;;;;;;;-11.01;82.64;101066.70;1688137;83;21761;-70
2022/01/12 00:06:09;;;;;;;5.03;4.33;;;;;;;-10.99;82.49;101073.97;1715578;83;21745;-74
2022/01/12 00:08:36;;;;;;;5.40;4.57;;;;;;;-10.97;82.38;101062.17;1652506;83;21652;-73
2022/01/12 00:11:04;;;;;;;5.53;4.93;;;;;;;-11.01;82.18;101060.66;1689438;83;21073;-76
2022/01/12 00:13:31;;;;;;;5.53;5.03;;;;;;;-11.06;82.11;101058.30;1715518;83;22221;-77
2022/01/12 00:15:57;;;;;;;7.67;4.20;;;;;;;-11.07;82.17;101060.06;1700663;83;21695;-89
2022/01/12 00:18:26;;;;;;;4.47;4.07;;;;;;;-11.13;82.00;101063.45;1607971;87;21816;-87
2022/01/12 00:20:54;;;;;;;5.20;4.73;;;;;;;-11.13;82.00;101063.45;1636535;87;21016;-89
2022/01/12 00:23:21;;;;;;;6.07;4.57;;;;;;;-11.15;81.98;101056.18;1639004;87;21764;-72
2022/01/12 00:25:59;;;;;;;11.50;8.70;;;;;;;-11.18;81.97;101062.39;1640668;86;22405;-77
2022/01/12 00:33:55;;;;;;;5.80;4.80;;;;;;;-11.23;81.84;101060.94;1656204;85;21685;-87
2022/01/12 00:36:22;;;;;;;9.10;4.97;;;;;;;-11.32;81.79;101060.95;1683478;85;21760;-82
2022/01/12 00:38:49;;;;;;;7.67;5.57;;;;;;;-11.34;81.93;101065.83;1681977;85;21797;-86
2022/01/12 00:41:17;;;;;;;5.43;4.87;;;;;;;-11.35;82.00;101057.19;1683873;85;21656;-85
2022/01/12 00:43:47;;;;;;;5.47;5.00;;;;;;;-11.43;82.02;101067.59;1661761;85;21808;-78
2022/01/12 00:46:14;;;;;;;10.10;5.77;;;;;;;-11.51;82.32;101074.47;1686822;85;22310;-69
2022/01/12 00:48:41;;;;;;;6.10;5.50;;;;;;;-11.52;82.65;101070.19;1661283;85;21756;-76
2022/01/12 00:51:10;;;;;;;6.60;5.97;;;;;;;-11.54;82.68;101063.77;1686955;85;21687;-74
2022/01/12 00:53:36;;;;;;;8.30;4.73;;;;;;;-11.46;82.82;101070.34;1684904;85;21684;-73
2022/01/12 00:56:03;;;;;;;5.37;4.73;;;;;;;-11.43;82.55;101060.64;1684339;85;21689;-73
2022/01/12 00:58:30;;;;;;;6.27;5.63;;;;;;;-11.44;82.24;101060.25;1619856;85;21752;-76
2022/01/12 01:00:57;;;;;;;10.67;6.17;;;;;;;-11.44;81.93;101056.81;1653066;85;21770;-74
2022/01/12 01:03:23;;;;;;;5.83;5.27;;;;;;;-11.50;81.68;101059.25;1678830;85;21681;-74
2022/01/12 01:05:50;;;;;;;7.10;6.17;;;;;;;-11.60;81.43;101052.84;1678821;85;21667;-73
2022/01/12 01:08:18;;;;;;;6.00;5.50;;;;;;;-11.64;81.51;101051.31;1678802;85;21677;-75
2022/01/12 01:10:46;;;;;;;9.67;6.77;;;;;;;-11.66;81.52;101052.71;1651243;85;21759;-76
2022/01/12 01:13:22;;;;;;;10.67;6.20;;;;;;;-11.71;81.34;101057.28;1678902;85;21749;-78
2022/01/12 01:26:36;;;;;;;7.57;6.17;;;;;;;-11.83;81.53;101056.59;1656778;85;21657;-75
2022/01/12 01:29:03;;;;;;;10.20;7.63;;;;;;;-11.77;81.58;101061.50;1679159;85;21744;-77
2022/01/12 01:31:33;;;;;;;8.20;4.93;;;;;;;-11.77;81.57;101054.17;1678904;85;21713;-77
2022/01/12 01:34:06;;;;;;;11.47;5.90;;;;;;;-11.73;81.59;101057.83;1651826;85;21849;-75
2022/01/12 01:36:28;;;;;;;9.63;5.97;;;;;;;-11.72;81.26;101059.97;1651029;85;21742;-75
2022/01/12 01:38:56;;;;;;;8.90;6.03;;;;;;;-11.72;81.26;101059.97;1679190;85;22308;-73
2022/01/12 01:41:23;;;;;;;7.80;6.13;;;;;;;-11.69;81.42;101067.56;1679256;85;22299;-76
2022/01/12 01:54:53;;;;;;;15.80;8.47;;;;;;;-11.77;81.09;101077.06;1662512;85;22436;-74
2022/01/12 01:57:20;;;;;;;9.87;7.07;;;;;;;-11.77;81.09;101077.06;1683675;85;21764;-70
2022/01/12 01:59:46;;;;;;;10.70;7.70;;;;;;;-11.80;81.03;101085.46;1682298;85;21611;-74
2022/01/12 02:02:14;;;;;;;14.43;8.43;;;;;;;-11.82;81.00;101075.15;1683962;85;21774;-70
2022/01/12 02:04:40;;;;;;;12.23;6.57;;;;;;;-11.79;80.82;101091.00;1658826;85;21654;-71
2022/01/12 02:07:07;;;;;;;12.70;7.20;;;;;;;-11.79;80.82;101091.00;1684323;85;22256;-71
2022/01/12 02:09:34;;;;;;;15.30;8.23;;;;;;;-11.83;80.60;101082.54;1624945;85;21545;-71
2022/01/12 02:12:10;;;;;;;12.63;7.23;;;;;;;-11.83;80.59;101077.34;1683844;84;21709;-76
2022/01/12 02:14:36;;;;;;;24.53;10.83;;;;;;;-11.80;80.55;101087.60;1663624;85;21743;-72
2022/01/12 02:17:10;;;;;;;10.77;7.47;;;;;;;-11.81;80.45;101088.51;1688099;85;21778;-72
2022/01/12 02:19:50;;;;;;;11.40;7.03;;;;;;;-11.81;80.45;101088.51;1688552;85;22124;-69
2022/01/12 02:36:15;;;;;;;4.60;4.20;;;;;;;-12.12;79.88;101088.27;1687479;85;21470;-70
2022/01/12 02:41:23;;;;;;;9.00;6.50;;;;;;;-12.13;80.20;101085.31;1660852;85;21580;-73
2022/01/12 02:54:51;;;;;;;6.77;6.07;;;;;;;-12.45;81.19;101092.80;1690505;84;21352;-71
2022/01/12 02:57:18;;;;;;;9.87;6.53;;;;;;;-12.45;81.19;101092.80;1690484;84;21519;-72
2022/01/12 03:00:07;;;;;;;12.60;6.57;;;;;;;-12.51;80.96;101080.58;1689594;84;21713;-71
2022/01/12 03:02:38;;;;;;;9.23;7.80;;;;;;;-12.56;81.09;101093.73;1687398;84;21975;-74
2022/01/12 03:07:37;;;;;;;20.70;9.38;;;;;;;-12.44;81.71;101091.91;1684583;84;21917;-75
2022/01/12 03:10:02;;;;;;;14.87;6.70;;;;;;;-12.39;81.59;101077.44;1673439;84;21328;-74
2022/01/12 03:12:30;;;;;;;8.43;5.67;;;;;;;-12.45;81.21;101091.52;1654137;84;21369;-75
2022/01/12 03:14:56;;;;;;;13.30;6.80;;;;;;;-12.44;81.00;101084.13;1667005;84;21398;-75
2022/01/12 03:17:23;;;;;;;10.47;6.80;;;;;;;-12.37;81.08;101083.86;1689381;84;21968;-76
2022/01/12 03:19:49;;;;;;;7.63;6.57;;;;;;;-12.37;81.08;101083.86;1671972;84;21441;-75
2022/01/12 03:22:16;;;;;;;7.97;6.90;;;;;;;-12.38;80.77;101085.61;1691858;84;21339;-75
2022/01/12 03:24:43;;;;;;;6.93;5.40;;;;;;;-12.32;80.68;101090.97;1692126;84;21986;-73
2022/01/12 03:27:13;;;;;;;9.50;7.13;;;;;;;-12.32;80.68;101090.97;1691942;84;21350;-73
2022/01/12 03:29:41;;;;;;;14.87;6.83;;;;;;;-12.32;80.62;101072.83;1682085;84;21976;-77
2022/01/12 03:32:07;;;;;;;9.37;6.77;;;;;;;-12.26;80.52;101083.73;1686424;84;21357;-79
2022/01/12 03:34:34;;;;;;;11.40;6.17;;;;;;;-12.24;80.18;101082.38;1629977;86;21847;-74
2022/01/12 03:39:46;;;;;;;12.67;6.73;;;;;;;-12.26;79.75;101074.66;1646907;84;22025;-73
2022/01/12 03:42:13;;;;;;;10.57;7.50;;;;;;;-12.29;79.78;101077.41;1640860;85;21343;-74
2022/01/12 03:44:41;;;;;;;10.47;6.53;;;;;;;-12.28;79.82;101086.02;1688720;84;21499;-75
2022/01/12 03:47:07;;;;;;;10.77;7.43;;;;;;;-12.31;79.47;101087.44;1666678;84;21449;-74
2022/01/12 03:49:34;;;;;;;10.27;6.23;;;;;;;-12.31;79.47;101087.44;1691029;84;21565;-77
2022/01/12 03:52:01;;;;;;;6.97;5.57;;;;;;;-12.40;78.92;101091.30;1666633;84;21516;-77
2022/01/12 03:54:27;;;;;;;10.73;7.63;;;;;;;-12.40;78.92;101091.30;1685027;84;21397;-79
2022/01/12 03:56:54;;;;;;;13.40;7.60;;;;;;;-12.54;78.79;101079.43;1682776;85;21403;-78
2022/01/12 03:59:20;;;;;;;8.77;6.47;;;;;;;-12.54;78.79;101079.43;1684407;85;21524;-75
2022/01/12 04:01:47;;;;;;;9.80;6.97;;;;;;;-12.64;78.70;101080.75;1657018;85;22001;-75
2022/01/12 04:04:21;;;;;;;10.63;7.00;;;;;;;-12.63;78.94;101091.50;1721424;82;21396;-76
2022/01/12 04:09:27;;;;;;;11.00;7.17;;;;;;;-12.72;78.97;101083.70;1689995;85;21387;-75
2022/01/12 04:11:54;;;;;;;11.33;7.23;;;;;;;-12.72;78.97;101083.70;1661220;85;21301;-76
2022/01/12 04:14:22;;;;;;;7.27;5.63;;;;;;;-12.77;78.96;101081.77;1690183;84;21895;-76
2022/01/12 04:16:48;;;;;;;7.37;6.30;;;;;;;-12.75;78.97;101092.03;1677533;83;21284;-74
2022/01/12 04:19:15;;;;;;;10.90;7.23;;;;;;;-12.75;79.02;101092.03;1718426;82;21450;-74
2022/01/12 04:21:46;;;;;;;8.63;5.80;;;;;;;-12.80;78.98;101088.36;1719125;82;21272;-73
2022/01/12 04:24:10;;;;;;;12.63;7.30;;;;;;;-12.75;79.10;101097.22;1719253;82;21400;-74
2022/01/12 04:26:36;;;;;;;11.37;6.43;;;;;;;-12.76;79.06;101086.49;1717946;82;21361;-74
2022/01/12 04:29:03;;;;;;;7.97;5.13;;;;;;;-12.80;78.82;101075.41;1717241;83;21179;-75
2022/01/12 04:31:29;;;;;;;8.80;6.10;;;;;;;-12.80;78.82;101075.41;1717802;83;21321;-77
2022/01/12 04:33:56;;;;;;;9.27;6.43;;;;;;;-12.83;78.75;101075.55;1717543;82;21449;-73
2022/01/12 04:36:22;;;;;;;12.37;7.03;;;;;;;-12.85;78.71;101087.27;1718617;83;21354;-78
2022/01/12 04:38:48;;;;;;;8.27;6.50;;;;;;;-12.85;78.86;101078.20;1718062;82;21896;-79
2022/01/12 04:41:15;;;;;;;8.27;7.43;;;;;;;-12.85;78.86;101078.20;1717239;83;21447;-79
2022/01/12 04:43:43;;;;;;;7.00;5.37;;;;;;;-12.84;78.79;101083.77;1717101;83;21399;-80
2022/01/12 04:51:26;;;;;;;7.13;6.33;;;;;;;-12.76;78.77;101074.84;1719799;83;22233;-88
2022/01/12 04:53:53;;;;;;;10.23;5.53;;;;;;;-12.74;78.83;101072.55;1743671;81;21242;-80
2022/01/12 04:56:20;;;;;;;6.73;5.70;;;;;;;-12.72;78.67;101081.11;1727742;83;21378;-83
2022/01/12 04:58:47;;;;;;;6.20;5.03;;;;;;;-12.75;78.53;101076.05;1653166;85;21353;-86
2022/01/12 05:01:23;;;;;;;17.77;6.80;;;;;;;-12.76;78.51;101072.25;1670812;85;21762;-84
2022/01/12 05:06:46;;;;;;;8.47;6.57;;;;;;;-12.74;78.68;101077.73;1712068;83;21329;-84
2022/01/12 05:14:24;;;;;;;6.00;5.20;;;;;;;-12.67;78.30;101079.61;1649099;86;22029;-88
2022/01/12 05:16:51;;;;;;;8.67;6.00;;;;;;;-12.58;78.14;101079.19;1655811;86;21869;-82
2022/01/12 05:19:17;;;;;;;7.40;5.40;;;;;;;-12.58;78.14;101079.19;1629029;85;21937;-78
2022/01/12 05:21:43;;;;;;;9.70;5.73;;;;;;;-12.55;78.11;101082.47;1658433;86;21974;-82
2022/01/12 05:24:10;;;;;;;10.73;5.50;;;;;;;-12.54;78.03;101088.05;1635048;86;21540;-73
2022/01/12 05:26:38;;;;;;;10.03;6.30;;;;;;;-12.57;77.90;101075.24;1634490;86;21440;-75
2022/01/12 05:29:04;;;;;;;9.97;5.73;;;;;;;-12.52;77.92;101079.77;1665716;85;22170;-76
2022/01/12 05:31:33;;;;;;;9.00;4.50;;;;;;;-12.52;77.73;101087.53;1660240;85;21480;-76
2022/01/12 05:34:00;;;;;;;4.73;4.23;;;;;;;-12.52;77.73;101087.53;1660926;85;21405;-74
2022/01/12 05:36:31;;;;;;;5.63;4.63;;;;;;;-12.56;77.70;101080.78;1644181;86;21462;-74
2022/01/12 05:38:59;;;;;;;8.43;5.87;;;;;;;-12.56;77.70;101080.78;1657389;85;21434;-77
2022/01/12 05:41:27;;;;;;;7.63;4.97;;;;;;;-12.56;77.62;101097.63;1650813;85;21453;-76
2022/01/12 05:43:55;;;;;;;12.63;7.00;;;;;;;-12.64;77.66;101081.59;1674267;85;21407;-75
2022/01/12 05:46:25;;;;;;;8.27;5.50;;;;;;;-12.60;77.86;101090.91;1650906;85;21494;-75
2022/01/12 05:51:36;;;;;;;10.87;6.43;;;;;;;-12.58;77.84;101087.80;1653518;85;22023;-81
2022/01/12 05:54:04;;;;;;;6.23;4.23;;;;;;;-12.54;77.89;101089.80;1684404;85;21389;-82
2022/01/12 05:56:30;;;;;;;10.00;6.23;;;;;;;-12.51;77.93;101089.19;1652245;85;22004;-80
2022/01/12 05:58:56;;;;;;;5.37;4.87;;;;;;;-12.45;77.90;101090.22;1651860;85;21289;-81
2022/01/12 06:01:23;;;;;;;8.43;6.13;;;;;;;-12.47;77.61;101091.22;1679360;85;21405;-78
2022/01/12 06:03:51;;;;;;;9.03;5.30;;;;;;;-12.44;77.75;101094.50;1679114;85;21445;-78
2022/01/12 06:06:20;;;;;;;5.77;5.20;;;;;;;-12.44;77.75;101094.50;1684795;85;21850;-76
2022/01/12 06:08:47;;;;;;;4.80;4.23;;;;;;;-12.51;77.38;101086.60;1684335;84;21354;-79
2022/01/12 06:11:16;;;;;;;12.40;6.17;;;;;;;-12.51;77.38;101086.60;1684645;85;21516;-78
2022/01/12 06:13:43;;;;;;;7.87;4.63;;;;;;;-12.54;77.26;101094.97;1656981;85;21424;-81
2022/01/12 06:16:11;;;;;;;6.50;5.47;;;;;;;-12.59;77.32;101102.95;1684925;85;21394;-78
2022/01/12 06:18:40;;;;;;;5.97;5.13;;;;;;;-12.58;77.40;101097.32;1685778;82;21432;-80
2022/01/12 06:21:11;;;;;;;7.47;4.30;;;;;;;-12.58;77.40;101097.32;1690509;84;22049;-77
2022/01/12 06:23:39;;;;;;;10.77;5.90;;;;;;;-12.60;77.36;101094.79;1709496;83;21459;-79
2022/01/12 06:26:07;;;;;;;5.37;4.57;;;;;;;-12.59;77.42;101105.55;1719382;83;21377;-80
2022/01/12 06:31:10;;;;;;;7.37;4.33;;;;;;;-12.59;77.30;101100.36;1734490;81;21286;-79
2022/01/12 06:33:45;;;;;;;7.60;5.53;;;;;;;-12.63;77.20;101097.98;1713331;82;21459;-79
2022/01/12 06:36:17;;;;;;;7.47;4.90;;;;;;;-12.65;77.05;101098.48;1716222;83;21422;-79
2022/01/12 06:38:44;;;;;;;7.47;4.57;;;;;;;-12.66;76.99;101105.90;1685602;83;21896;-81
2022/01/12 06:41:12;;;;;;;4.50;4.03;;;;;;;-12.67;77.02;101109.39;1718953;83;21415;-78
2022/01/12 06:43:41;;;;;;;6.13;5.17;;;;;;;-12.69;77.14;101114.63;1718865;82;21929;-79
2022/01/12 06:46:08;;;;;;;7.43;5.17;;;;;;;-12.67;77.07;101107.65;1739263;82;21375;-80
2022/01/12 06:48:34;;;;;;;8.40;6.63;;;;;;;-12.67;77.10;101097.28;1739306;82;21373;-79
2022/01/12 06:51:01;;;;;;;7.00;4.73;;;;;;;-12.64;77.24;101097.14;1718751;83;21757;-80
2022/01/12 06:53:28;;;;;;;8.27;5.70;;;;;;;-12.59;77.29;101096.48;1718713;82;21332;-79
2022/01/12 06:55:55;;;;;;;5.93;4.97;;;;;;;-12.59;77.02;101112.02;1720679;83;21535;-77
2022/01/12 06:58:21;;;;;;;9.67;5.87;;;;;;;-12.59;77.00;101099.07;1695106;83;21839;-82
2022/01/12 07:00:47;;;;;;;6.17;5.13;;;;;;;-12.58;76.92;101104.64;1664985;83;21396;-80
2022/01/12 07:03:15;;;;;;;7.17;5.57;;;;;;;-12.59;76.95;101117.66;1665837;83;21894;-78
2022/01/12 07:05:43;;;;;;;10.57;5.20;;;;;;;-12.52;77.12;101105.67;1723649;82;21379;-81
2022/01/12 07:08:11;;;;;;;5.60;5.00;;;;;;;-12.50;76.87;101120.67;1724580;81;21238;-79
2022/01/12 07:10:40;;;;;;;3.47;3.27;;;;;;;-12.51;76.63;101115.09;1724390;81;21276;-79
2022/01/12 07:13:11;;;;;;;8.57;4.93;;;;;;;-12.52;76.40;101103.53;1724921;82;21404;-77
2022/01/12 07:15:39;;;;;;;5.80;4.50;;;;;;;-12.55;76.43;101099.31;1722881;83;21451;-81
2022/01/12 07:18:06;;;;;;;4.30;3.90;;;;;;;-12.52;76.43;101106.97;1718460;83;21352;-83
2022/01/12 07:20:34;;;;;;;5.27;4.60;;;;;;;-12.53;76.24;101124.71;1692361;83;21542;-79
2022/01/12 07:23:00;;;;;;;3.97;3.70;;;;;;;-12.53;76.24;101124.71;1691827;83;21308;-83
2022/01/12 07:25:27;;;;;;;4.03;3.70;;;;;;;-12.56;76.22;101108.44;1692051;83;21426;-80
2022/01/12 07:27:53;;;;;;;5.10;4.60;;;;;;;-12.64;76.18;101124.34;1690747;83;21335;-80
2022/01/12 07:30:24;;;;;;;4.33;3.90;;;;;;;-12.69;76.35;101126.28;1694383;83;21299;-81
2022/01/12 07:33:29;;;;;;;4.70;4.30;;;;;;;-12.69;76.35;101126.28;1723320;83;21379;-79
2022/01/12 07:35:55;;;;;;;4.83;4.43;;;;;;;-12.65;76.30;101139.94;1722761;83;20953;-77
2022/01/12 07:38:22;;;;;;;9.63;5.83;;;;;;;-12.71;75.90;101141.08;1723572;83;21928;-74
2022/01/12 07:40:48;;;;;;;6.50;5.43;;;;;;;-12.65;76.03;101126.53;1724610;83;21343;-80
2022/01/12 07:43:15;;;;;;;12.83;5.70;;;;;;;-12.61;76.12;101125.48;1697934;83;21448;-80
2022/01/12 07:45:41;;;;;;;7.00;4.50;;;;;;;-12.56;76.00;101125.28;1723737;82;21889;-81
2022/01/12 07:48:07;;;;;;;5.27;4.73;;;;;;;-12.63;75.71;101119.55;1688193;83;21657;-80
2022/01/12 07:50:34;;;;;;;5.90;4.60;;;;;;;-12.55;76.61;101115.31;1672803;83;21351;-82
2022/01/12 07:53:01;;;;;;;7.67;5.20;;;;;;;-12.52;76.80;101127.70;1722789;83;21383;-80
2022/01/12 07:55:27;;;;;;;5.67;5.17;;;;;;;-12.52;76.80;101127.70;1722418;83;21421;-76
2022/01/12 07:57:56;;;;;;;9.27;6.90;;;;;;;-12.49;76.07;101120.22;1723684;83;21295;-83
2022/01/12 08:00:22;;;;;;;7.30;5.07;;;;;;;-12.58;74.88;101120.64;1751814;81;21391;-84
2022/01/12 08:02:52;;;;;;;10.93;5.93;;;;;;;-12.68;74.36;101134.91;1726993;82;21337;-77
2022/01/12 08:05:19;;;;;;;9.43;5.93;;;;;;;-12.70;74.14;101131.53;1699197;83;21303;-78
2022/01/12 08:07:47;;;;;;;16.43;5.33;;;;;;;-12.78;73.53;101122.81;1727098;83;21423;-80
2022/01/12 08:10:13;;;;;;;5.40;4.60;;;;;;;-12.85;73.40;101134.33;1727011;83;21313;-79
2022/01/12 08:12:39;;;;;;;4.87;4.47;;;;;;;-12.86;73.55;101130.08;1727304;83;21293;-79
2022/01/12 08:15:07;;;;;;;12.50;6.00;;;;;;;-12.82;73.79;101131.63;1730554;82;21276;-81
2022/01/12 08:17:34;;;;;;;9.13;6.27;;;;;;;-12.67;73.78;101134.00;1744908;82;21312;-82
2022/01/12 08:20:04;;;;;;;13.30;6.07;;;;;;;-12.67;73.78;101134.00;1720361;82;21449;-81
2022/01/12 08:22:31;;;;;;;6.23;4.93;;;;;;;-12.65;73.59;101133.02;1721842;82;22547;-81
2022/01/12 08:24:59;;;;;;;5.77;4.60;;;;;;;-12.46;73.68;101117.48;1714138;83;21384;-81
2022/01/12 08:27:25;;;;;;;6.93;4.83;;;;;;;-12.46;73.68;101117.48;1701948;83;21325;-80
2022/01/12 08:29:59;;;;;;;11.10;7.10;;;;;;;-12.46;73.21;101118.33;1699275;83;21354;-81
2022/01/12 08:32:21;;;;;;;14.23;6.87;;;;;;;-12.52;72.94;101110.86;1725191;83;21411;-80
2022/01/12 08:34:47;;;;;;;10.10;6.33;;;;;;;-12.65;73.20;101114.03;1715972;83;21421;-84
2022/01/12 08:37:17;;;;;;;13.87;6.37;;;;;;;-12.65;73.20;101114.03;1727116;83;21713;-84
2022/01/12 08:40:12;;;;;;;8.77;6.17;;;;;;;-12.62;73.62;101112.17;1698827;83;21239;-79
2022/01/12 08:46:45;;;;;;;7.20;5.37;;;;;;;-12.92;73.76;101103.15;1722359;83;21842;-83
2022/01/12 08:49:12;;;;;;;5.30;4.40;;;;;;;-12.91;74.44;101116.04;1722457;83;21918;-81
2022/01/12 08:51:40;;;;;;;10.27;5.93;;;;;;;-12.88;74.65;101109.88;1722188;83;21336;-82
2022/01/12 08:54:09;;;;;;;11.13;6.87;;;;;;;-12.85;74.93;101107.98;1697352;83;21639;-82
2022/01/12 08:56:37;;;;;;;12.27;6.93;;;;;;;-12.73;75.04;101110.95;1713728;83;21337;-84
2022/01/12 08:59:03;;;;;;;8.37;5.53;;;;;;;-12.68;74.57;101107.25;1714338;83;21244;-84
2022/01/12 09:01:30;;;;;;;10.83;6.93;;;;;;;-12.57;74.86;101102.45;1685991;83;21776;-84
2022/01/12 09:03:56;;;;;;;7.73;5.57;;;;;;;-12.41;74.97;101099.98;1714022;83;21220;-78
2022/01/12 09:06:24;;;;;;;9.40;5.70;;;;;;;-12.11;74.53;101093.39;1714068;83;21385;-82
2022/01/12 09:08:50;;;;;;;10.13;6.43;;;;;;;-12.11;74.53;101093.39;1713823;83;21304;-83
2022/01/12 09:11:18;;;;;;;7.13;5.27;;;;;;;-11.83;74.37;101088.18;1714182;83;21476;-82
2022/01/12 09:13:45;;;;;;;8.77;7.27;;;;;;;-11.83;74.37;101088.18;1685850;83;21973;-80
2022/01/12 09:16:13;;;;;;;11.30;7.30;;;;;;;-11.82;73.15;101080.79;1713981;83;21979;-77
2022/01/12 09:18:40;;;;;;;5.30;4.63;;;;;;;-11.81;73.06;101083.77;1713838;83;21381;-78
2022/01/12 09:21:07;;;;;;;5.73;4.57;;;;;;;-11.82;72.58;101087.27;1685619;83;21423;-79
2022/01/12 09:23:34;;;;;;;9.13;7.23;;;;;;;-11.82;72.58;101087.27;1713926;83;21486;-77
2022/01/12 09:26:00;;;;;;;8.20;7.20;;;;;;;-12.04;72.10;101080.53;1714416;83;21418;-83
2022/01/12 09:28:26;;;;;;;16.00;8.20;;;;;;;-12.04;72.10;101080.53;1713797;83;21566;-81
2022/01/12 09:30:53;;;;;;;7.47;5.83;;;;;;;-11.99;72.21;101078.53;1714119;83;21503;-80
2022/01/12 09:33:19;;;;;;;9.53;7.27;;;;;;;-11.83;72.57;101082.54;1713928;83;22132;-78
2022/01/12 09:35:49;;;;;;;8.17;5.93;;;;;;;-11.76;72.56;101070.13;1714196;83;22185;-83
2022/01/12 09:38:14;;;;;;;6.73;4.20;;;;;;;-11.76;72.56;101066.23;1713694;83;21563;-77
2022/01/12 09:40:40;;;;;;;10.90;5.77;;;;;;;-11.67;72.00;101071.78;1662231;83;21754;-75
2022/01/12 09:43:06;;;;;;;9.67;6.40;;;;;;;-11.62;71.98;101089.27;1713523;83;22196;-77
2022/01/12 09:45:33;;;;;;;13.20;6.80;;;;;;;-11.62;71.98;101089.27;1727991;82;22271;-78
2022/01/12 09:47:59;;;;;;;12.57;4.87;;;;;;;-11.71;71.45;101084.98;1741473;82;22246;-75
2022/01/12 09:50:26;;;;;;;6.53;4.77;;;;;;;-11.71;71.45;101084.98;1701226;83;21761;-79
2022/01/12 09:52:55;;;;;;;11.33;6.20;;;;;;;-11.81;71.35;101074.24;1713272;83;21600;-81
2022/01/12 09:55:23;;;;;;;8.83;5.87;;;;;;;-11.97;72.06;101066.80;1713173;82;22103;-79
2022/01/12 09:57:50;;;;;;;5.87;5.37;;;;;;;-11.97;72.06;101066.80;1712304;82;21683;-79
2022/01/12 10:00:22;;;;;;;7.23;6.17;;;;;;;-11.93;72.47;101063.14;1661061;83;21723;-78
2022/01/12 10:02:48;;;;;;;;;;;;;;;-11.93;72.47;101063.14;1693304;83;21679;-80
2022/01/12 10:05:15;;;;;;;10.47;5.03;;;;;;;-11.85;72.57;101062.34;1717685;83;20159;-89
2022/01/12 10:07:41;;;;;;;5.20;4.23;;;;;;;-11.75;72.51;101067.92;1691034;83;22253;-87
2022/01/12 10:10:14;;;;;;;5.80;4.73;;;;;;;-11.67;72.60;101064.45;1727493;82;21702;-84
2022/01/12 10:12:39;;;;;;;5.42;4.45;;;;;;;-11.57;72.67;101069.12;1715261;82;21666;-85
2022/01/12 10:15:11;;;;;;;5.00;4.00;;;;;;;-11.55;71.97;101063.83;1694339;83;21509;-82
2022/01/12 10:17:42;;;;;;;6.28;4.25;;;;;;;-11.58;71.51;101058.80;1713607;83;21696;-85
2022/01/12 10:20:18;;;;;;;5.30;4.00;;;;;;;-11.64;71.15;101057.80;1688735;83;21020;-84
2022/01/12 10:23:11;;;;;;;5.50;4.07;;;;;;;-11.79;71.36;101046.91;1717719;83;21751;-81
2022/01/12 10:25:35;;;;;;;5.10;3.90;;;;;;;-11.79;71.36;101046.91;1717795;83;21510;-81
2022/01/12 10:28:18;;;;;;;4.83;3.70;;;;;;;-11.82;71.20;101069.12;1696057;82;21737;-84
2022/01/12 10:31:02;;;;;;;6.25;3.95;;;;;;;-11.85;71.27;101071.88;1718584;82;28626;-81
2022/01/12 10:33:31;;;;;;;5.80;5.10;;;;;;;-11.90;71.53;101064.31;1719187;83;21028;-81
2022/01/12 10:36:01;;;;;;;6.20;4.10;;;;;;;-11.92;71.71;101045.83;1712923;83;22244;-77
2022/01/12 10:38:28;;;;;;;5.00;3.87;;;;;;;-11.96;71.62;101071.08;1685441;83;21675;-82
2022/01/12 10:41:02;;;;;;;5.23;4.50;;;;;;;-11.96;71.62;101074.97;1699589;83;21648;-82
2022/01/12 10:43:41;;;;;;;3.87;3.57;;;;;;;-12.00;71.35;101068.25;1713946;83;21703;-77
2022/01/12 10:46:10;;;;;;;6.33;5.73;;;;;;;-12.13;72.39;101042.53;1712997;83;21503;-79
2022/01/12 10:48:47;;;;;;;5.60;5.07;;;;;;;-12.21;72.82;101039.45;1713337;83;21531;-86
2022/01/12 10:51:20;;;;;;;4.90;4.50;;;;;;;-12.18;73.06;101068.64;1715471;82;21510;-84
2022/01/12 10:53:49;;;;;;;7.40;5.17;;;;;;;-12.12;73.30;101062.34;1688193;83;21897;-87
2022/01/12 10:56:22;;;;;;;5.67;4.30;;;;;;;-12.12;73.30;101062.34;1666447;84;21502;-89
2022/01/12 10:58:52;;;;;;;4.87;4.33;;;;;;;-12.08;73.58;101054.80;1708518;83;21379;-87
2022/01/12 11:01:24;;;;;;;7.73;5.40;;;;;;;-12.12;73.49;101047.63;1722135;82;21576;-83
2022/01/12 11:03:50;;;;;;;6.20;5.47;;;;;;;-12.16;73.91;101054.33;1719195;83;21934;-85
2022/01/12 11:06:17;;;;;;;7.17;4.93;;;;;;;-12.16;73.91;101054.33;1707137;83;21536;-79
2022/01/12 11:08:50;;;;;;;4.77;4.33;;;;;;;-12.17;74.00;101052.19;1695774;83;21986;-87
2022/01/12 11:11:21;;;;;;;4.22;3.92;;;;;;;-12.10;74.11;101060.08;1722718;83;21516;-85
2022/01/12 11:13:52;;;;;;;5.35;4.85;;;;;;;-12.09;73.87;101044.91;1720288;83;21728;-74
2022/01/12 11:16:24;;;;;;;6.53;4.93;;;;;;;-12.11;73.90;101057.55;1706688;83;21034;-70
2022/01/12 11:18:52;;;;;;;5.53;4.37;;;;;;;-12.15;73.91;101063.80;1690480;84;21995;-70
2022/01/12 11:21:37;;;;;;;6.93;4.23;;;;;;;-12.19;73.65;101044.11;1690296;84;21438;-68
2022/01/12 11:24:05;;;;;;;5.60;4.17;;;;;;;-12.20;73.71;101035.50;1722831;83;21587;-70
2022/01/12 11:26:32;;;;;;;5.47;4.30;;;;;;;-12.36;74.22;101039.70;1722977;82;21899;-73
2022/01/12 11:28:58;;;;;;;4.60;4.20;;;;;;;-12.33;74.22;101037.00;1721982;83;21332;-77
2022/01/12 11:31:35;;;;;;;9.77;5.23;;;;;;;-12.22;74.25;101032.12;1722204;83;21966;-79
2022/01/12 11:34:02;;;;;;;9.43;5.30;;;;;;;-12.08;74.55;101026.27;1722145;83;21404;-75
2022/01/12 11:36:38;;;;;;;6.33;4.23;;;;;;;-11.95;74.39;101026.93;1719029;83;21445;-76
2022/01/12 11:39:11;;;;;;;4.27;3.87;;;;;;;-11.82;74.25;101036.23;1714469;83;21345;-75
2022/01/12 11:41:38;;;;;;;;;;;;;;;-11.82;74.25;101036.23;1725038;83;21842;-76
2022/01/12 11:44:20;;;;;;;9.07;4.40;;;;;;;-11.62;73.71;101028.28;1714837;83;49953;-82
2022/01/12 11:46:58;;;;;;;5.17;4.67;;;;;;;-11.62;73.71;101028.28;1712875;83;22125;-85
2022/01/12 11:49:36;;;;;;;3.70;3.40;;;;;;;-11.59;73.53;101032.02;1663843;85;21623;-78
2022/01/12 11:52:18;;;;;;;4.03;3.63;;;;;;;-11.52;73.29;101011.34;1681850;85;22245;-73
2022/01/12 11:54:47;;;;;;;;;;;;;;;-11.51;73.19;101031.16;1689903;85;22253;-74
2022/01/12 11:57:19;;;;;;;6.03;3.93;;;;;;;-11.49;73.19;101024.61;1708479;83;21244;-75
2022/01/12 11:59:56;;;;;;;5.13;4.33;;;;;;;-11.56;72.71;101029.25;1712953;83;22096;-71
2022/01/12 12:02:36;;;;;;;3.33;3.10;;;;;;;-11.58;72.79;101023.31;1717126;83;21447;-74
2022/01/12 12:05:17;;;;;;;5.57;3.83;;;;;;;-11.62;72.38;101015.77;1717448;83;21711;-82
2022/01/12 12:08:04;;;;;;;5.07;4.57;;;;;;;-11.68;72.32;101024.69;1681092;82;21642;-84
2022/01/12 12:10:38;;;;;;;5.63;5.00;;;;;;;-11.61;72.61;101021.34;1741869;82;22635;-85
2022/01/12 12:13:05;;;;;;;;;;;;;;;-11.47;72.60;101017.59;1698078;83;21498;-83
2022/01/12 12:15:32;;;;;;;5.17;4.37;;;;;;;-11.41;72.25;101010.77;1735389;82;20169;-82
2022/01/12 12:18:04;;;;;;;5.33;4.83;;;;;;;-11.31;72.22;101017.63;1690948;83;21579;-90
2022/01/12 12:20:29;;;;;;;8.00;5.50;;;;;;;-11.20;72.20;101009.69;1719565;82;21670;-92
2022/01/12 12:22:57;;;;;;;4.40;4.00;;;;;;;-11.17;71.65;101034.17;1719399;83;21650;-93
2022/01/12 12:25:26;;;;;;;5.63;4.50;;;;;;;-11.13;71.66;101027.94;1736914;82;21688;-87
2022/01/12 12:27:56;;;;;;;6.13;5.33;;;;;;;-11.11;71.07;101018.75;1715788;82;21692;-91
2022/01/12 12:30:24;;;;;;;5.70;5.13;;;;;;;-11.12;71.10;101004.08;1712781;83;22618;-85
2022/01/12 12:33:11;;;;;;;5.60;5.10;;;;;;;-11.08;71.14;101018.60;1685070;83;21724;-77
2022/01/12 12:35:38;;;;;;;7.50;6.77;;;;;;;-11.03;70.79;101014.47;1689787;83;21736;-75
2022/01/12 12:38:07;;;;;;;6.97;5.90;;;;;;;-11.02;70.59;101013.06;1713024;83;21739;-70
2022/01/12 12:40:37;;;;;;;7.33;5.03;;;;;;;-11.03;70.51;101009.27;1693589;82;21654;-70
2022/01/12 12:43:17;;;;;;;7.33;5.80;;;;;;;-11.07;70.55;101008.11;1666633;83;21784;-71
2022/01/12 12:45:49;;;;;;;7.10;5.67;;;;;;;-11.12;70.31;101007.52;1718727;82;21714;-72
2022/01/12 12:48:20;;;;;;;5.70;4.87;;;;;;;-11.07;70.62;100999.02;1718856;83;21682;-71
2022/01/12 12:50:49;;;;;;;6.57;5.30;;;;;;;-11.00;70.67;101002.61;1690478;83;21709;-74